Time;durP1;ratioP1;P1;durP2;ratioP2;P2;SDS_P1;SDS_P2;PMS_P1;PMS_P2;Temp;Humidity;BMP_temperature;BMP_pressure;BME280_temperature;BME280_humidity;BME280_pressure;Samples;Min_cycle;Max_cycle;Signal;HPM_P1;HPM_P2
2023/05/25 00:00:26;;;;;;;;;;;;;;;15.13;87.71;95112.44;5134440;27;1238;-54
2023/05/25 00:02:53;;;;;;;;;;;;;;;14.93;89.33;95109.50;5134130;27;1044;-54
2023/05/25 00:05:19;;;;;;;;;;;;;;;15.00;88.21;95115.81;5134189;27;1993;-54
2023/05/25 00:07:46;;;;;;;;;;;;;;;15.02;87.44;95119.16;5134028;27;1000;-54
2023/05/25 00:10:12;;;;;;;;;;;;;;;15.17;86.86;95125.31;5134135;27;1047;-54
2023/05/25 00:12:39;;;;;;;;;;;;;;;15.25;86.31;95126.25;5134346;27;1016;-54
2023/05/25 00:15:05;;;;;;;;;;;;;;;15.16;87.35;95129.06;5134013;27;1275;-54
2023/05/25 00:17:32;;;;;;;;;;;;;;;15.21;86.33;95126.63;5133732;27;1244;-54
2023/05/25 00:20:08;;;;;;;;;;;;;;;15.18;86.61;95128.88;5133804;27;2004;-54
2023/05/25 00:22:34;;;;;;;;;;;;;;;14.94;88.08;95132.72;5134062;27;1052;-54
2023/05/25 00:25:01;;;;;;;;;;;;;;;14.94;87.61;95133.56;5133855;27;1909;-54
2023/05/25 00:27:27;;;;;;;;;;;;;;;14.90;87.30;95143.03;5133986;27;956;-54
2023/05/25 00:29:53;;;;;;;;;;;;;;;14.76;88.02;95136.66;5133974;27;1032;-54
2023/05/25 00:32:19;;;;;;;;;;;;;;;14.71;87.96;95132.84;5133530;27;1056;-54
2023/05/25 00:34:46;;;;;;;;;;;;;;;14.73;87.27;95141.56;5133672;27;1993;-54
2023/05/25 00:37:13;;;;;;;;;;;;;;;14.72;88.05;95132.69;5133552;27;1456;-54
2023/05/25 00:39:39;;;;;;;;;;;;;;;14.68;88.68;95133.22;5133714;27;1008;-54
2023/05/25 00:42:06;;;;;;;;;;;;;;;14.70;87.48;95139.25;5133546;27;1862;-54
2023/05/25 00:44:32;;;;;;;;;;;;;;;14.61;88.13;95147.44;5133652;27;2004;-54
2023/05/25 00:47:00;;;;;;;;;;;;;;;14.56;87.59;95139.03;5133502;28;1250;-54
2023/05/25 00:49:27;;;;;;;;;;;;;;;14.53;88.50;95142.13;5133431;28;948;-54
2023/05/25 00:51:53;;;;;;;;;;;;;;;14.52;88.58;95150.38;5132850;28;1295;-54
2023/05/25 00:54:20;;;;;;;;;;;;;;;14.42;88.98;95142.56;5133113;28;1216;-54
2023/05/25 00:56:50;;;;;;;;;;;;;;;14.37;89.33;95142.28;5133026;28;1894;-54
2023/05/25 00:59:22;;;;;;;;;;;;;;;14.01;90.80;95142.97;5133356;28;1096;-54
2023/05/25 01:01:52;;;;;;;;;;;;;;;13.82;91.66;95150.53;5133414;28;1043;-54
2023/05/25 01:04:20;;;;;;;;;;;;;;;13.86;92.21;95143.78;5133398;28;1913;-53
2023/05/25 01:06:48;;;;;;;;;;;;;;;14.01;90.32;95135.75;5133523;28;1269;-54
2023/05/25 01:09:15;;;;;;;;;;;;;;;14.20;89.26;95141.63;5133365;28;1149;-54
2023/05/25 01:11:43;;;;;;;;;;;;;;;14.33;88.39;95146.38;5133611;28;1024;-54
2023/05/25 01:14:09;;;;;;;;;;;;;;;14.08;90.36;95145.78;5133552;28;1000;-54
2023/05/25 01:16:36;;;;;;;;;;;;;;;14.05;89.89;95145.13;5133029;28;1247;-54
2023/05/25 01:19:02;;;;;;;;;;;;;;;14.09;89.14;95142.91;5132922;28;1041;-54
2023/05/25 01:21:58;;;;;;;;;;;;;;;14.15;89.21;95147.56;5133323;28;1039;-54
2023/05/25 01:24:31;;;;;;;;;;;;;;;14.20;89.59;95145.13;5119488;28;1910;-54
2023/05/25 01:27:00;;;;;;;;;;;;;;;14.13;90.23;95136.13;5133184;28;1020;-54
2023/05/25 01:29:27;;;;;;;;;;;;;;;14.18;89.97;95138.28;5133223;28;1051;-54
2023/05/25 01:31:54;;;;;;;;;;;;;;;14.09;90.17;95139.38;5133092;28;1024;-54
2023/05/25 01:34:21;;;;;;;;;;;;;;;13.85;90.34;95142.13;5132381;28;1111;-54
2023/05/25 01:36:47;;;;;;;;;;;;;;;13.83;90.44;95141.47;5132557;28;1029;-54
2023/05/25 01:39:14;;;;;;;;;;;;;;;13.94;89.71;95136.66;5132262;28;973;-54
2023/05/25 01:41:40;;;;;;;;;;;;;;;13.98;89.73;95138.81;5132044;28;1112;-54
2023/05/25 01:44:07;;;;;;;;;;;;;;;13.91;89.22;95134.34;5132324;28;1914;-54
2023/05/25 01:46:39;;;;;;;;;;;;;;;13.83;90.13;95136.09;5132273;28;977;-54
2023/05/25 01:49:07;;;;;;;;;;;;;;;13.66;90.05;95140.78;5132037;28;1052;-54
2023/05/25 01:51:54;;;;;;;;;;;;;;;13.72;89.56;95144.59;5133026;27;1028;-54
2023/05/25 01:54:21;;;;;;;;;;;;;;;13.56;90.76;95145.53;5115119;28;1064;-54
2023/05/25 01:56:48;;;;;;;;;;;;;;;13.56;91.10;95145.53;5115172;28;1041;-54
2023/05/25 01:59:18;;;;;;;;;;;;;;;13.64;90.36;95147.34;5115219;28;1885;-54
2023/05/25 02:01:45;;;;;;;;;;;;;;;13.72;89.37;95139.22;5115065;28;1049;-54
2023/05/25 02:04:11;;;;;;;;;;;;;;;13.38;90.36;95143.16;5114898;28;1898;-54
2023/05/25 02:06:37;;;;;;;;;;;;;;;13.13;92.16;95150.50;5115226;28;969;-54
2023/05/25 02:09:03;;;;;;;;;;;;;;;13.26;91.76;95147.22;5097948;28;1056;-54
2023/05/25 02:11:29;;;;;;;;;;;;;;;13.37;91.67;95151.38;5115954;28;1120;-54
2023/05/25 02:13:55;;;;;;;;;;;;;;;13.53;90.50;95147.78;5115967;28;1005;-54
2023/05/25 02:16:21;;;;;;;;;;;;;;;13.47;90.31;95149.31;5114974;28;1894;-54
2023/05/25 02:18:47;;;;;;;;;;;;;;;13.44;90.71;95147.81;5114932;28;1087;-54
2023/05/25 02:21:13;;;;;;;;;;;;;;;13.40;90.66;95145.66;5114877;28;956;-54
2023/05/25 02:23:39;;;;;;;;;;;;;;;13.32;90.63;95156.44;5115002;28;1913;-54
2023/05/25 02:26:05;;;;;;;;;;;;;;;13.32;90.90;95148.38;5114975;28;1026;-54
2023/05/25 02:28:31;;;;;;;;;;;;;;;13.33;90.70;95158.13;5114858;28;1052;-54
2023/05/25 02:30:57;;;;;;;;;;;;;;;13.34;90.98;95163.34;5114682;28;1020;-54
2023/05/25 02:33:23;;;;;;;;;;;;;;;13.31;91.35;95158.31;5114455;28;1107;-54
2023/05/25 02:35:49;;;;;;;;;;;;;;;13.32;91.44;95173.41;5114486;28;1036;-54
2023/05/25 02:38:15;;;;;;;;;;;;;;;13.40;91.07;95175.22;5114496;28;993;-54
2023/05/25 02:40:41;;;;;;;;;;;;;;;13.30;90.33;95167.38;5114919;28;1048;-54
2023/05/25 02:43:07;;;;;;;;;;;;;;;13.32;90.08;95173.41;5114711;28;1071;-54
2023/05/25 02:45:33;;;;;;;;;;;;;;;13.24;89.96;95178.78;5114292;28;1914;-54
2023/05/25 02:47:59;;;;;;;;;;;;;;;13.21;90.43;95179.16;5114400;28;992;-53
2023/05/25 02:50:25;;;;;;;;;;;;;;;13.03;90.91;95182.09;5114253;28;952;-53
2023/05/25 02:52:51;;;;;;;;;;;;;;;13.06;90.81;95181.75;5123186;27;1288;-53
2023/05/25 02:55:17;;;;;;;;;;;;;;;12.96;90.89;95179.28;5134588;27;1309;-53
2023/05/25 02:57:43;;;;;;;;;;;;;;;13.01;90.96;95176.06;5134999;27;1079;-53
2023/05/25 03:00:12;;;;;;;;;;;;;;;13.06;90.88;95185.25;5134630;27;1092;-53
2023/05/25 03:02:38;;;;;;;;;;;;;;;12.93;91.87;95176.94;5135057;27;1027;-53
2023/05/25 03:05:05;;;;;;;;;;;;;;;12.93;91.68;95187.69;5135355;27;1986;-53
2023/05/25 03:07:31;;;;;;;;;;;;;;;13.00;91.08;95187.81;5135373;27;973;-53
2023/05/25 03:09:58;;;;;;;;;;;;;;;13.09;92.13;95187.59;5117174;27;1032;-54
2023/05/25 03:12:24;;;;;;;;;;;;;;;13.19;90.78;95192.75;5134997;27;1061;-54
2023/05/25 03:14:50;;;;;;;;;;;;;;;13.29;90.80;95187.97;5134882;27;1108;-54
2023/05/25 03:17:16;;;;;;;;;;;;;;;13.36;90.90;95196.22;5134416;27;1024;-54
2023/05/25 03:19:42;;;;;;;;;;;;;;;13.33;90.25;95193.03;5134790;27;1199;-54
2023/05/25 03:22:08;;;;;;;;;;;;;;;13.27;90.25;95194.56;5134542;27;1104;-54
2023/05/25 03:24:34;;;;;;;;;;;;;;;13.05;91.40;95207.75;5134953;27;1909;-55
2023/05/25 03:27:00;;;;;;;;;;;;;;;13.03;91.46;95215.16;5135003;27;960;-54
2023/05/25 03:29:26;;;;;;;;;;;;;;;13.20;90.62;95209.69;5116464;27;1051;-55
2023/05/25 03:31:52;;;;;;;;;;;;;;;13.44;89.68;95203.38;5134927;27;1055;-55
2023/05/25 03:34:18;;;;;;;;;;;;;;;13.47;90.00;95206.56;5134871;27;1035;-55
2023/05/25 03:36:46;;;;;;;;;;;;;;;13.37;90.75;95210.47;5134782;27;1016;-55
2023/05/25 03:39:12;;;;;;;;;;;;;;;13.52;90.50;95216.75;5134525;27;2031;-55
2023/05/25 03:41:38;;;;;;;;;;;;;;;13.66;90.79;95205.25;5134564;27;1076;-56
2023/05/25 03:44:04;;;;;;;;;;;;;;;13.80;90.43;95213.56;5134401;27;1914;-55
2023/05/25 03:46:30;;;;;;;;;;;;;;;13.66;90.15;95218.69;5134307;27;1024;-55
2023/05/25 03:48:56;;;;;;;;;;;;;;;13.69;90.06;95217.47;5134714;27;1023;-55
2023/05/25 03:51:22;;;;;;;;;;;;;;;13.90;89.93;95216.81;5134305;27;1065;-55
2023/05/25 03:53:48;;;;;;;;;;;;;;;14.19;88.47;95221.47;5134177;27;1624;-55
2023/05/25 03:56:14;;;;;;;;;;;;;;;14.31;88.46;95227.22;5134606;27;1231;-55
2023/05/25 03:58:40;;;;;;;;;;;;;;;14.44;89.85;95240.06;5134148;27;1099;-55
2023/05/25 04:01:08;;;;;;;;;;;;;;;14.66;88.41;95237.53;5134440;27;968;-55
2023/05/25 04:03:34;;;;;;;;;;;;;;;14.81;88.74;95244.56;5134333;27;1315;-55
2023/05/25 04:06:00;;;;;;;;;;;;;;;14.94;88.57;95245.78;5134039;27;1913;-55
2023/05/25 04:08:27;;;;;;;;;;;;;;;15.14;88.25;95237.97;5134007;27;1305;-54
2023/05/25 04:10:53;;;;;;;;;;;;;;;15.25;89.11;95237.50;5133801;27;1233;-55
2023/05/25 04:13:19;;;;;;;;;;;;;;;15.44;87.85;95244.16;5133921;27;1217;-55
2023/05/25 04:15:45;;;;;;;;;;;;;;;15.67;87.66;95232.38;5133766;27;981;-55
2023/05/25 04:18:11;;;;;;;;;;;;;;;16.02;86.28;95248.75;5133980;27;1025;-55
2023/05/25 04:20:37;;;;;;;;;;;;;;;16.31;85.65;95242.38;5133797;27;975;-56
2023/05/25 04:23:03;;;;;;;;;;;;;;;16.37;86.85;95252.38;5133892;27;1047;-56
2023/05/25 04:25:30;;;;;;;;;;;;;;;16.45;87.60;95248.72;5133938;27;1914;-56
2023/05/25 04:27:56;;;;;;;;;;;;;;;16.79;85.44;95245.25;5133880;27;980;-56
2023/05/25 04:30:22;;;;;;;;;;;;;;;17.14;81.99;95247.97;5133625;27;1068;-56
2023/05/25 04:32:49;;;;;;;;;;;;;;;17.21;80.57;95253.44;5134105;27;999;-56
2023/05/25 04:35:15;;;;;;;;;;;;;;;17.45;77.72;95258.31;5115786;27;1088;-55
2023/05/25 04:37:41;;;;;;;;;;;;;;;17.48;80.13;95265.19;5133903;27;1032;-55
2023/05/25 04:40:12;;;;;;;;;;;;;;;17.36;81.87;95267.66;5133915;27;1039;-55
2023/05/25 04:42:39;;;;;;;;;;;;;;;17.67;80.22;95264.44;5133942;27;1072;-55
2023/05/25 04:45:06;;;;;;;;;;;;;;;17.82;79.92;95267.00;5133405;27;1918;-54
2023/05/25 04:47:33;;;;;;;;;;;;;;;17.70;80.20;95274.88;5133527;28;993;-55
2023/05/25 04:50:00;;;;;;;;;;;;;;;17.55;81.63;95280.41;5133513;28;1049;-55
2023/05/25 04:52:26;;;;;;;;;;;;;;;17.16;81.20;95271.06;5133402;28;1884;-55
2023/05/25 04:54:52;;;;;;;;;;;;;;;17.15;82.50;95279.38;5133054;28;1225;-55
2023/05/25 04:57:18;;;;;;;;;;;;;;;17.04;82.03;95275.38;5133484;28;1126;-55
2023/05/25 04:59:44;;;;;;;;;;;;;;;16.77;82.16;95277.84;5133102;28;1545;-55
2023/05/25 05:02:10;;;;;;;;;;;;;;;16.62;84.88;95274.41;5133471;28;1040;-55
2023/05/25 05:04:37;;;;;;;;;;;;;;;16.81;84.67;95281.00;5133121;28;2002;-55
2023/05/25 05:07:03;;;;;;;;;;;;;;;16.75;83.82;95282.63;5133532;28;969;-55
2023/05/25 05:09:29;;;;;;;;;;;;;;;16.75;84.90;95282.63;5133530;28;1032;-55
2023/05/25 05:11:55;;;;;;;;;;;;;;;16.77;83.96;95283.25;5133350;28;1001;-55
2023/05/25 05:14:21;;;;;;;;;;;;;;;16.68;83.29;95278.19;5133272;28;1108;-55
2023/05/25 05:16:47;;;;;;;;;;;;;;;16.78;84.88;95284.06;5132940;28;1340;-55
2023/05/25 05:19:13;;;;;;;;;;;;;;;16.92;81.58;95274.22;5133142;28;953;-55
2023/05/25 05:21:39;;;;;;;;;;;;;;;17.04;81.00;95279.94;5133133;28;1061;-55
2023/05/25 05:24:05;;;;;;;;;;;;;;;17.15;81.12;95284.78;5133098;28;1910;-55
2023/05/25 05:26:31;;;;;;;;;;;;;;;17.31;80.62;95284.44;5134048;27;1036;-55
2023/05/25 05:28:57;;;;;;;;;;;;;;;17.43;80.12;95282.00;5137090;27;1024;-55
2023/05/25 05:31:24;;;;;;;;;;;;;;;17.26;79.60;95283.38;5136870;27;1035;-55
2023/05/25 05:33:50;;;;;;;;;;;;;;;17.29;79.94;95285.69;5136858;27;1076;-55
2023/05/25 05:36:16;;;;;;;;;;;;;;;17.36;81.04;95290.09;5136996;27;1019;-56
2023/05/25 05:38:45;;;;;;;;;;;;;;;17.54;79.86;95283.31;5136996;27;1127;-55
2023/05/25 05:41:13;;;;;;;;;;;;;;;17.67;78.15;95277.13;5137012;27;1031;-56
2023/05/25 05:43:42;;;;;;;;;;;;;;;17.83;77.78;95278.63;5136834;27;1000;-55
2023/05/25 05:46:09;;;;;;;;;;;;;;;17.86;77.08;95275.56;5137084;27;1268;-56
2023/05/25 05:48:35;;;;;;;;;;;;;;;17.76;77.76;95268.63;5137039;27;965;-55
2023/05/25 05:51:02;;;;;;;;;;;;;;;17.82;78.64;95275.09;5118742;27;969;-55
2023/05/25 05:53:28;;;;;;;;;;;;;;;17.90;79.54;95279.53;5136539;27;1326;-56
2023/05/25 05:55:57;;;;;;;;;;;;;;;17.95;79.45;95282.47;5136348;27;977;-55
2023/05/25 05:58:27;;;;;;;;;;;;;;;18.14;79.57;95287.09;5135990;27;957;-55
2023/05/25 06:00:55;;;;;;;;;;;;;;;18.14;74.41;95287.09;5136108;27;1095;-56
2023/05/25 06:03:21;;;;;;;;;;;;;;;18.26;73.38;95283.78;5135713;27;1040;-55
2023/05/25 06:05:47;;;;;;;;;;;;;;;18.66;73.83;95289.22;5135599;27;1905;-55
2023/05/25 06:08:13;;;;;;;;;;;;;;;19.30;72.81;95280.44;5135922;27;973;-56
2023/05/25 06:10:39;;;;;;;;;;;;;;;19.98;69.76;95279.16;5135970;27;969;-56
2023/05/25 06:13:06;;;;;;;;;;;;;;;20.23;68.76;95276.50;5135618;27;1028;-55
2023/05/25 06:15:32;;;;;;;;;;;;;;;20.42;67.24;95277.44;5134603;27;2795;-56
2023/05/25 06:17:59;;;;;;;;;;;;;;;20.77;66.58;95281.59;5134305;27;2837;-56
2023/05/25 06:20:25;;;;;;;;;;;;;;;21.08;66.44;95280.72;5135415;27;1040;-56
2023/05/25 06:22:51;;;;;;;;;;;;;;;21.47;64.94;95275.09;5135650;27;1055;-56
2023/05/25 06:25:17;;;;;;;;;;;;;;;21.63;64.70;95278.06;5135361;27;2016;-56
2023/05/25 06:27:43;;;;;;;;;;;;;;;21.88;64.31;95273.59;5135765;27;974;-56
2023/05/25 06:30:09;;;;;;;;;;;;;;;22.10;64.00;95280.22;5135694;27;1049;-56
2023/05/25 06:32:35;;;;;;;;;;;;;;;22.36;62.58;95279.00;5135488;27;1035;-56
2023/05/25 06:35:01;;;;;;;;;;;;;;;22.41;62.06;95279.16;5135166;27;1060;-55
2023/05/25 06:37:33;;;;;;;;;;;;;;;22.44;61.23;95272.41;5134739;27;973;-55
2023/05/25 06:40:00;;;;;;;;;;;;;;;22.51;61.95;95277.75;5134931;27;1036;-56
2023/05/25 06:42:27;;;;;;;;;;;;;;;22.45;62.82;95278.72;5134954;27;972;-56
2023/05/25 06:44:53;;;;;;;;;;;;;;;22.47;60.32;95269.22;5134403;27;1901;-56
2023/05/25 06:47:19;;;;;;;;;;;;;;;22.92;60.12;95265.19;5134578;27;1069;-56
2023/05/25 06:49:45;;;;;;;;;;;;;;;23.11;60.26;95265.94;5133724;27;2561;-56
2023/05/25 06:52:11;;;;;;;;;;;;;;;23.07;57.88;95262.84;5132896;27;2905;-55
2023/05/25 06:54:37;;;;;;;;;;;;;;;23.14;58.13;95260.81;5134236;27;1146;-56
2023/05/25 06:57:03;;;;;;;;;;;;;;;23.45;60.73;95257.94;5134459;27;1013;-56
2023/05/25 06:59:29;;;;;;;;;;;;;;;23.35;58.95;95258.53;5134316;27;921;-56
2023/05/25 07:01:57;;;;;;;;;;;;;;;23.74;58.82;95261.59;5134578;27;1035;-56
2023/05/25 07:04:23;;;;;;;;;;;;;;;24.25;57.89;95262.63;5134358;27;1905;-56
2023/05/25 07:06:50;;;;;;;;;;;;;;;24.17;58.59;95260.28;5134361;27;984;-56
2023/05/25 07:09:16;;;;;;;;;;;;;;;23.81;57.14;95264.19;5134258;27;1004;-56
2023/05/25 07:11:42;;;;;;;;;;;;;;;23.70;58.29;95260.41;5134225;27;981;-56
2023/05/25 07:14:08;;;;;;;;;;;;;;;23.97;57.23;95255.25;5133982;27;1028;-56
2023/05/25 07:16:34;;;;;;;;;;;;;;;24.11;57.88;95253.91;5134008;27;1890;-56
2023/05/25 07:19:00;;;;;;;;;;;;;;;24.31;55.54;95253.44;5134107;27;1017;-56
2023/05/25 07:21:26;;;;;;;;;;;;;;;24.20;55.72;95258.97;5134125;27;1048;-56
2023/05/25 07:23:52;;;;;;;;;;;;;;;24.12;56.87;95255.53;5133937;27;1910;-56
2023/05/25 07:26:21;;;;;;;;;;;;;;;24.26;55.38;95249.78;5133897;27;1982;-56
2023/05/25 07:28:47;;;;;;;;;;;;;;;24.88;56.53;95257.19;5134015;27;1039;-56
2023/05/25 07:31:13;;;;;;;;;;;;;;;25.06;55.18;95247.91;5133758;27;1291;-56
2023/05/25 07:33:39;;;;;;;;;;;;;;;24.86;53.84;95248.41;5133721;27;1119;-56
2023/05/25 07:36:05;;;;;;;;;;;;;;;24.76;54.36;95251.81;5133580;27;1461;-56
2023/05/25 07:38:31;;;;;;;;;;;;;;;24.34;57.83;95241.22;5133762;27;1047;-56
2023/05/25 07:40:57;;;;;;;;;;;;;;;23.94;59.35;95248.38;5133816;27;996;-56
2023/05/25 07:43:24;;;;;;;;;;;;;;;23.70;59.89;95247.59;5133501;27;1107;-56
2023/05/25 07:45:50;;;;;;;;;;;;;;;23.82;58.80;95239.38;5133375;27;1976;-56
2023/05/25 07:48:16;;;;;;;;;;;;;;;24.12;59.53;95232.88;5133628;27;1050;-56
2023/05/25 07:50:42;;;;;;;;;;;;;;;23.90;57.74;95232.72;5132832;27;1008;-56
2023/05/25 07:53:08;;;;;;;;;;;;;;;23.89;59.37;95229.16;5133364;27;1263;-56
2023/05/25 07:55:34;;;;;;;;;;;;;;;24.07;59.53;95232.78;5115021;27;1072;-56
2023/05/25 07:58:00;;;;;;;;;;;;;;;23.93;58.87;95227.59;5133196;27;957;-56
2023/05/25 08:00:26;;;;;;;;;;;;;;;23.85;59.50;95222.53;5133528;27;1020;-56
2023/05/25 08:02:52;;;;;;;;;;;;;;;24.42;57.88;95226.31;5133369;27;1044;-56
2023/05/25 08:05:18;;;;;;;;;;;;;;;25.35;53.12;95229.50;5132998;27;1989;-56
2023/05/25 08:07:45;;;;;;;;;;;;;;;25.42;53.73;95227.41;5133118;27;1044;-56
2023/05/25 08:10:11;;;;;;;;;;;;;;;25.64;54.72;95221.13;5132998;27;1096;-56
2023/05/25 08:12:37;;;;;;;;;;;;;;;25.71;52.79;95229.97;5133043;27;1037;-55
2023/05/25 08:15:03;;;;;;;;;;;;;;;25.78;53.16;95216.94;5132967;27;1036;-57
2023/05/25 08:17:29;;;;;;;;;;;;;;;26.26;53.31;95217.22;5132727;27;1032;-56
2023/05/25 08:19:55;;;;;;;;;;;;;;;26.83;52.40;95221.34;5114988;27;973;-55
2023/05/25 08:22:21;;;;;;;;;;;;;;;27.17;47.91;95218.31;5133256;27;956;-57
2023/05/25 08:24:47;;;;;;;;;;;;;;;27.11;46.86;95213.84;5131674;27;2558;-57
2023/05/25 08:27:13;;;;;;;;;;;;;;;26.93;49.54;95207.69;5131374;27;2844;-57
2023/05/25 08:29:40;;;;;;;;;;;;;;;26.91;49.80;95217.28;5132741;27;1060;-57
2023/05/25 08:32:06;;;;;;;;;;;;;;;27.13;49.96;95203.44;5132979;27;1234;-58
2023/05/25 08:34:32;;;;;;;;;;;;;;;27.23;48.41;95209.81;5132683;27;1130;-57
2023/05/25 08:36:58;;;;;;;;;;;;;;;26.18;47.86;95212.19;5132656;27;1119;-57
2023/05/25 08:39:24;;;;;;;;;;;;;;;25.50;52.56;95207.81;5132540;27;1045;-57
2023/05/25 08:41:50;;;;;;;;;;;;;;;25.85;51.80;95206.59;5132538;27;1041;-57
2023/05/25 08:44:16;;;;;;;;;;;;;;;25.74;51.20;95212.19;5132800;27;1905;-57
2023/05/25 08:46:45;;;;;;;;;;;;;;;25.27;51.55;95208.03;5132884;28;992;-57
2023/05/25 08:49:13;;;;;;;;;;;;;;;25.10;54.94;95214.34;5132695;28;1052;-57
2023/05/25 08:51:46;;;;;;;;;;;;;;;25.91;53.07;95210.22;5112295;28;3883;-57
2023/05/25 08:54:13;;;;;;;;;;;;;;;26.58;53.50;95209.03;5111843;28;1158;-57
2023/05/25 08:56:50;;;;;;;;;;;;;;;26.86;49.47;95209.81;5112085;28;969;-57
2023/05/25 08:59:27;;;;;;;;;;;;;;;27.01;50.19;95209.94;5112102;28;1053;-57
2023/05/25 09:02:03;;;;;;;;;;;;;;;27.32;49.63;95209.34;5115757;28;1047;-56
2023/05/25 09:04:29;;;;;;;;;;;;;;;27.35;45.99;95217.06;5128499;27;2484;-58
2023/05/25 09:06:56;;;;;;;;;;;;;;;26.22;48.29;95219.66;5136503;27;1036;-57
2023/05/25 09:09:23;;;;;;;;;;;;;;;25.47;49.38;95215.69;5136636;27;1119;-58
2023/05/25 09:11:49;;;;;;;;;;;;;;;25.21;49.95;95217.22;5136957;27;1103;-57
2023/05/25 09:14:15;;;;;;;;;;;;;;;24.87;53.75;95222.72;5136883;27;1121;-57
2023/05/25 09:16:41;;;;;;;;;;;;;;;24.73;53.04;95217.56;5136539;27;1111;-57
2023/05/25 09:19:07;;;;;;;;;;;;;;;24.73;53.26;95212.09;5136523;27;984;-57
2023/05/25 09:21:33;;;;;;;;;;;;;;;24.58;52.09;95211.03;5136957;27;964;-57
2023/05/25 09:24:00;;;;;;;;;;;;;;;24.25;54.23;95212.63;5136287;27;1984;-57
2023/05/25 09:26:26;;;;;;;;;;;;;;;24.11;54.90;95212.09;5134561;27;2523;-57
2023/05/25 09:28:52;;;;;;;;;;;;;;;23.81;55.65;95218.63;5135583;27;1139;-57
2023/05/25 09:31:18;;;;;;;;;;;;;;;23.59;58.86;95219.25;5136608;27;1055;-57
2023/05/25 09:33:44;;;;;;;;;;;;;;;23.28;63.07;95222.41;5136549;27;1059;-57
2023/05/25 09:36:11;;;;;;;;;;;;;;;23.09;61.57;95229.88;5136197;27;964;-57
2023/05/25 09:38:39;;;;;;;;;;;;;;;22.88;64.05;95233.97;5136910;27;1031;-57
2023/05/25 09:41:05;;;;;;;;;;;;;;;22.69;62.51;95242.28;5136932;27;1036;-57
2023/05/25 09:43:32;;;;;;;;;;;;;;;22.76;62.10;95237.53;5136833;27;1044;-57
2023/05/25 09:45:58;;;;;;;;;;;;;;;22.76;64.71;95244.88;5136583;27;1914;-57
2023/05/25 09:48:25;;;;;;;;;;;;;;;22.58;65.77;95256.69;5136216;27;1124;-57
2023/05/25 09:50:51;;;;;;;;;;;;;;;22.39;63.47;95277.75;5136668;27;1089;-57
2023/05/25 09:53:17;;;;;;;;;;;;;;;21.95;64.04;95299.66;5136792;27;1323;-57
2023/05/25 09:55:47;;;;;;;;;;;;;;;21.31;66.48;95330.91;5136518;27;1454;-57
2023/05/25 09:58:13;;;;;;;;;;;;;;;20.67;71.64;95336.44;5132394;27;2536;-56
2023/05/25 10:00:39;;;;;;;;;;;;;;;19.90;78.19;95336.41;5116305;28;1061;-56
2023/05/25 10:03:06;;;;;;;;;;;;;;;19.47;79.18;95332.31;5116386;28;1044;-56
2023/05/25 10:05:32;;;;;;;;;;;;;;;19.06;85.95;95344.25;5115828;28;1909;-57
2023/05/25 10:08:00;;;;;;;;;;;;;;;18.77;86.00;95374.44;5115893;28;1100;-57
2023/05/25 10:10:27;;;;;;;;;;;;;;;18.64;87.08;95386.09;5116055;28;1241;-57
2023/05/25 10:12:54;;;;;;;;;;;;;;;18.41;89.11;95384.56;5115212;28;1044;-58
2023/05/25 10:15:21;;;;;;;;;;;;;;;18.44;90.38;95384.19;5115875;28;1053;-56
2023/05/25 10:17:52;;;;;;;;;;;;;;;18.49;86.94;95388.97;5115629;28;1053;-55
2023/05/25 10:20:19;;;;;;;;;;;;;;;18.44;88.44;95389.59;5115898;28;1024;-55
2023/05/25 10:22:50;;;;;;;;;;;;;;;18.42;87.76;95391.69;5115515;28;1206;-56
2023/05/25 10:25:24;;;;;;;;;;;;;;;18.40;88.81;95390.19;5115775;28;1917;-55
2023/05/25 10:27:56;;;;;;;;;;;;;;;18.23;89.05;95414.94;5115339;28;1113;-55
2023/05/25 10:30:24;;;;;;;;;;;;;;;17.99;92.85;95429.81;5115418;28;997;-55
2023/05/25 10:32:51;;;;;;;;;;;;;;;17.78;93.63;95432.56;5115425;28;1049;-56
2023/05/25 10:35:18;;;;;;;;;;;;;;;17.75;93.66;95441.91;5115236;28;1085;-56
2023/05/25 10:37:44;;;;;;;;;;;;;;;17.71;93.53;95432.53;5115565;28;1048;-56
2023/05/25 10:40:12;;;;;;;;;;;;;;;17.82;93.06;95423.84;5115372;28;992;-56
2023/05/25 10:42:40;;;;;;;;;;;;;;;17.94;92.00;95418.75;5115076;28;1557;-55
2023/05/25 10:45:07;;;;;;;;;;;;;;;17.99;90.88;95413.56;5115107;28;2000;-56
2023/05/25 10:47:37;;;;;;;;;;;;;;;18.03;91.40;95411.31;5114879;28;1170;-56
2023/05/25 10:50:04;;;;;;;;;;;;;;;18.03;91.13;95408.59;5114156;27;2664;-56
2023/05/25 10:52:30;;;;;;;;;;;;;;;18.03;91.04;95409.41;5121145;27;1509;-55
2023/05/25 10:55:00;;;;;;;;;;;;;;;17.99;91.11;95400.03;5135367;27;1253;-55
2023/05/25 10:57:27;;;;;;;;;;;;;;;18.07;90.22;95405.28;5135642;27;980;-55
2023/05/25 10:59:58;;;;;;;;;;;;;;;18.00;90.26;95403.56;5116799;27;1490;-55
2023/05/25 11:02:27;;;;;;;;;;;;;;;18.05;89.93;95399.22;5135552;27;1368;-55
2023/05/25 11:05:12;;;;;;;;;;;;;;;17.92;91.64;95405.41;5135214;27;1997;-55
2023/05/25 11:07:57;;;;;;;;;;;;;;;17.81;93.88;95411.34;5135412;27;1134;-55
2023/05/25 11:10:42;;;;;;;;;;;;;;;17.90;91.28;95410.19;5135384;27;1198;-55
2023/05/25 11:13:32;;;;;;;;;;;;;;;17.95;89.96;95409.59;5135384;27;976;-55
2023/05/25 11:16:08;;;;;;;;;;;;;;;17.98;89.00;95405.66;5135119;27;1213;-55
2023/05/25 11:18:37;;;;;;;;;;;;;;;18.06;89.24;95409.03;5135063;27;1519;-55
2023/05/25 11:21:10;;;;;;;;;;;;;;;17.99;91.01;95402.75;5135123;27;1052;-55
2023/05/25 11:23:38;;;;;;;;;;;;;;;18.05;90.25;95401.09;5134541;27;1048;-55
2023/05/25 11:26:05;;;;;;;;;;;;;;;17.97;94.88;95410.22;5134408;27;1918;-55
2023/05/25 11:28:31;;;;;;;;;;;;;;;17.88;94.97;95397.91;5134805;27;1598;-55
2023/05/25 11:30:58;;;;;;;;;;;;;;;17.80;95.96;95392.66;5134827;27;1236;-55
2023/05/25 11:33:25;;;;;;;;;;;;;;;17.90;93.27;95383.13;5134669;27;1189;-55
2023/05/25 11:35:51;;;;;;;;;;;;;;;18.04;90.70;95380.50;5134776;27;1059;-55
2023/05/25 11:38:17;;;;;;;;;;;;;;;18.23;87.85;95366.22;5134437;27;1044;-55
2023/05/25 11:40:43;;;;;;;;;;;;;;;18.13;88.37;95379.28;5134841;27;1043;-55
2023/05/25 11:43:10;;;;;;;;;;;;;;;17.94;89.85;95373.56;5134490;27;1072;-55
2023/05/25 11:45:36;;;;;;;;;;;;;;;17.80;89.65;95368.31;5134369;27;1992;-55
2023/05/25 11:48:03;;;;;;;;;;;;;;;17.68;90.89;95368.88;5133479;27;2728;-55
2023/05/25 11:50:29;;;;;;;;;;;;;;;17.62;93.04;95376.94;5121320;27;2995;-55
2023/05/25 11:52:56;;;;;;;;;;;;;;;17.66;94.48;95370.94;5123630;27;1601;-55
2023/05/25 11:55:22;;;;;;;;;;;;;;;17.76;95.08;95371.41;5134179;27;1229;-55
2023/05/25 11:57:53;;;;;;;;;;;;;;;17.98;89.62;95365.91;5134202;27;1080;-55
2023/05/25 12:00:27;;;;;;;;;;;;;;;18.16;87.75;95351.81;5134095;27;1076;-55
2023/05/25 12:02:53;;;;;;;;;;;;;;;18.17;87.84;95345.34;5115961;27;1053;-55
2023/05/25 12:05:19;;;;;;;;;;;;;;;18.09;93.35;95334.72;5133943;27;1883;-55
2023/05/25 12:07:46;;;;;;;;;;;;;;;18.02;92.50;95310.38;5134026;27;1053;-55
2023/05/25 12:10:15;;;;;;;;;;;;;;;18.21;95.20;95334.97;5133026;27;3001;-55
2023/05/25 12:12:41;;;;;;;;;;;;;;;18.30;98.46;95328.34;5133045;27;2981;-56
2023/05/25 12:15:12;;;;;;;;;;;;;;;18.43;96.37;95327.53;5134115;27;1427;-55
2023/05/25 12:17:42;;;;;;;;;;;;;;;18.59;95.18;95320.88;5134027;27;983;-55
2023/05/25 12:20:09;;;;;;;;;;;;;;;18.63;96.37;95312.16;5133989;27;1036;-55
2023/05/25 12:22:36;;;;;;;;;;;;;;;18.64;95.98;95315.69;5133783;27;1033;-55
2023/05/25 12:25:04;;;;;;;;;;;;;;;18.75;95.35;95303.41;5133828;27;1913;-55
2023/05/25 12:27:30;;;;;;;;;;;;;;;18.89;97.51;95295.09;5133678;27;1693;-56
2023/05/25 12:29:57;;;;;;;;;;;;;;;19.24;95.13;95291.31;5133026;27;2402;-56
2023/05/25 12:32:23;;;;;;;;;;;;;;;19.31;94.53;95282.09;5115382;27;2888;-56
2023/05/25 12:34:49;;;;;;;;;;;;;;;19.39;90.56;95286.47;5113236;28;1028;-56
2023/05/25 12:37:18;;;;;;;;;;;;;;;19.37;88.99;95283.13;5113225;28;1311;-56
2023/05/25 12:39:45;;;;;;;;;;;;;;;19.53;88.11;95275.56;5113217;28;1024;-56
2023/05/25 12:42:12;;;;;;;;;;;;;;;19.58;91.87;95271.19;5113177;28;990;-56
2023/05/25 12:48:00;;;;;;;;;;;;;;;19.47;92.60;95258.28;5113025;28;767;-56
2023/05/25 12:50:26;;;;;;;;;;;;;;;19.50;89.16;95250.56;5112840;28;1049;-56
2023/05/25 12:52:59;;;;;;;;;;;;;;;19.57;88.32;95252.41;5137907;27;1548;-56
2023/05/25 12:55:26;;;;;;;;;;;;;;;19.69;89.39;95243.38;5133221;28;1363;-56
2023/05/25 12:57:54;;;;;;;;;;;;;;;19.84;87.38;95237.72;5133573;28;1155;-56
2023/05/25 13:00:22;;;;;;;;;;;;;;;19.96;88.54;95240.56;5133510;28;1004;-56